createdAt,value
2023-05-08T00:00:03.458Z,9.430391
2023-05-08T00:01:03.494Z,9.430375
2023-05-08T00:02:03.382Z,9.430367
2023-05-08T00:03:03.548Z,9.430426
2023-05-08T00:04:03.578Z,9.430426
2023-05-08T00:05:03.374Z,9.430429
2023-05-08T00:06:03.355Z,9.430362
2023-05-08T00:07:03.400Z,9.430383
2023-05-08T00:08:03.362Z,9.430369
2023-05-08T00:09:03.416Z,9.430368
2023-05-08T00:10:03.321Z,9.430366
2023-05-08T00:11:03.321Z,9.430393
2023-05-08T00:12:03.353Z,9.430398
2023-05-08T00:13:03.560Z,9.430397
2023-05-08T00:14:03.265Z,9.430390
2023-05-08T00:15:03.243Z,9.430397
2023-05-08T00:16:03.247Z,9.430410
2023-05-08T00:17:03.275Z,9.430417
2023-05-08T00:18:03.314Z,9.430413
2023-05-08T00:19:03.188Z,9.430401
2023-05-08T00:20:03.211Z,9.430399
2023-05-08T00:21:03.213Z,9.430408
2023-05-08T00:22:03.159Z,9.430396
2023-05-08T00:23:04.239Z,9.430387
2023-05-08T00:24:03.177Z,9.430396
2023-05-08T00:25:03.135Z,9.430366
2023-05-08T00:26:03.135Z,9.430384
2023-05-08T00:27:03.171Z,9.430406
2023-05-08T00:28:03.124Z,9.430381
2023-05-08T00:29:05.000Z,9.430367
2023-05-08T00:30:03.115Z,9.430378
2023-05-08T00:31:03.061Z,9.430387
2023-05-08T00:32:03.129Z,9.430356
2023-05-08T00:33:03.093Z,9.430351
2023-05-08T00:34:03.067Z,9.430335
2023-05-08T00:35:03.029Z,9.430319
2023-05-08T00:36:03.107Z,9.430313
2023-05-08T00:37:03.023Z,9.430336
2023-05-08T00:38:03.010Z,9.430358
2023-05-08T00:39:02.982Z,9.430345
2023-05-08T00:40:03.005Z,9.430341
2023-05-08T00:41:03.045Z,9.430366
2023-05-08T00:42:02.988Z,9.430354
2023-05-08T00:43:03.000Z,9.430377
2023-05-08T00:44:02.961Z,9.430318
2023-05-08T00:45:02.920Z,9.430328
2023-05-08T00:46:03.011Z,9.430323
2023-05-08T00:47:02.883Z,9.430334
2023-05-08T00:48:02.932Z,9.430338
2023-05-08T00:49:02.895Z,9.430305
2023-05-08T00:50:02.919Z,9.430319
2023-05-08T00:51:02.860Z,9.430346
2023-05-08T00:52:02.924Z,9.430308
2023-05-08T00:53:02.855Z,9.430311
2023-05-08T00:54:02.816Z,9.430322
2023-05-08T00:55:02.807Z,9.430292
2023-05-08T00:56:03.396Z,9.430303
2023-05-08T00:57:02.824Z,9.430367
2023-05-08T00:58:02.780Z,9.430344
2023-05-08T00:59:02.762Z,9.430352
2023-05-08T01:00:02.788Z,9.430359
2023-05-08T01:01:02.817Z,9.430345
2023-05-08T01:02:02.819Z,9.430399
2023-05-08T01:03:02.855Z,9.430369
2023-05-08T01:04:02.752Z,9.430361
2023-05-08T01:05:02.692Z,9.430318
2023-05-08T01:06:02.707Z,9.430335
2023-05-08T01:07:02.721Z,9.430365
2023-05-08T01:08:02.737Z,9.430361
2023-05-08T01:09:02.741Z,9.430361
2023-05-08T01:10:02.775Z,9.430322
2023-05-08T01:11:02.648Z,9.430334
2023-05-08T01:12:02.678Z,9.430348
2023-05-08T01:13:03.534Z,9.430346
2023-05-08T01:14:02.652Z,9.430375
2023-05-08T01:15:02.599Z,9.430357
2023-05-08T01:16:02.608Z,9.430326
2023-05-08T01:17:02.644Z,9.430316
2023-05-08T01:18:02.580Z,9.430326
2023-05-08T01:19:02.608Z,9.430342
2023-05-08T01:20:02.632Z,9.430345
2023-05-08T01:21:03.412Z,9.430361
2023-05-08T01:22:02.604Z,9.430331
2023-05-08T01:23:02.598Z,9.430313
2023-05-08T01:24:02.496Z,9.430333
2023-05-08T01:25:02.477Z,9.430323
2023-05-08T01:26:02.550Z,9.430298
2023-05-08T01:27:02.516Z,9.430307
2023-05-08T01:28:02.433Z,9.430367
2023-05-08T01:29:02.458Z,9.430361
2023-05-08T01:30:02.437Z,9.430349
2023-05-08T01:31:02.461Z,9.430356
2023-05-08T01:32:02.522Z,9.430311
2023-05-08T01:33:02.504Z,9.430362
2023-05-08T01:34:02.468Z,9.430355
2023-05-08T01:35:02.398Z,9.430349
2023-05-08T01:36:02.427Z,9.430355
2023-05-08T01:37:02.391Z,9.430348
2023-05-08T01:38:02.394Z,9.430365
2023-05-08T01:39:02.350Z,9.430338
2023-05-08T01:40:02.387Z,9.430287
2023-05-08T01:41:02.378Z,9.430320
2023-05-08T01:42:02.344Z,9.430312
2023-05-08T01:43:02.327Z,9.430355
2023-05-08T01:44:02.314Z,9.430313
2023-05-08T01:45:02.339Z,9.430343
2023-05-08T01:46:02.282Z,9.430327
2023-05-08T01:47:02.349Z,9.430299
2023-05-08T01:48:02.358Z,9.430318
2023-05-08T01:49:02.239Z,9.430341
2023-05-08T01:50:02.246Z,9.430313
2023-05-08T01:51:02.214Z,9.430275
2023-05-08T01:52:02.240Z,9.430327
2023-05-08T01:53:02.204Z,9.430329
2023-05-08T01:54:02.192Z,9.430315
2023-05-08T01:55:02.209Z,9.430292
2023-05-08T01:56:02.177Z,9.430373
2023-05-08T01:57:02.161Z,9.430331
2023-05-08T01:58:02.177Z,9.430335
2023-05-08T01:59:02.241Z,9.430326
2023-05-08T02:00:02.156Z,9.430346
2023-05-08T02:01:02.172Z,9.430339
2023-05-08T02:02:02.187Z,9.430262
2023-05-08T02:03:02.097Z,9.430310
2023-05-08T02:04:02.100Z,9.430305
2023-05-08T02:05:02.078Z,9.430322
2023-05-08T02:06:02.027Z,9.430277
2023-05-08T02:07:02.059Z,9.430305
2023-05-08T02:08:02.042Z,9.430350
2023-05-08T02:09:02.038Z,9.430322
2023-05-08T02:10:02.033Z,9.430323
2023-05-08T02:11:02.003Z,9.430328
2023-05-08T02:12:02.013Z,9.430326
2023-05-08T02:13:02.018Z,9.430308
2023-05-08T02:14:01.966Z,9.430300
2023-05-08T02:15:02.004Z,9.430299
2023-05-08T02:16:01.964Z,9.430322
2023-05-08T02:17:02.020Z,9.430333
2023-05-08T02:18:01.981Z,9.430320
2023-05-08T02:19:01.919Z,9.430305
2023-05-08T02:20:01.923Z,9.430309
2023-05-08T02:21:02.020Z,9.430321
2023-05-08T02:22:02.490Z,9.430323
2023-05-08T02:23:01.856Z,9.430348
2023-05-08T02:24:01.871Z,9.430341
2023-05-08T02:25:01.868Z,9.430334
2023-05-08T02:26:01.865Z,9.430334
2023-05-08T02:27:01.820Z,9.430324
2023-05-08T02:28:01.809Z,9.430316
2023-05-08T02:29:01.821Z,9.430333
2023-05-08T02:30:01.835Z,9.430280
2023-05-08T02:31:01.812Z,9.430275
2023-05-08T02:32:01.823Z,9.430323
2023-05-08T02:33:01.802Z,9.430299
2023-05-08T02:34:01.778Z,9.430290
2023-05-08T02:35:03.636Z,9.430323
2023-05-08T02:36:02.753Z,9.430356
2023-05-08T02:37:02.475Z,9.430306
2023-05-08T02:38:01.717Z,9.430315
2023-05-08T02:39:02.529Z,9.430337
2023-05-08T02:40:01.678Z,9.430297
2023-05-08T02:41:01.690Z,9.430345
2023-05-08T02:42:01.690Z,9.430344
2023-05-08T02:43:01.656Z,9.430317
2023-05-08T02:44:01.646Z,9.430293
2023-05-08T02:45:01.705Z,9.430313
2023-05-08T02:46:01.660Z,9.430344
2023-05-08T02:47:01.655Z,9.430360
2023-05-08T02:48:01.609Z,9.430333
2023-05-08T02:49:01.574Z,9.430317
2023-05-08T02:50:01.656Z,9.430297
2023-05-08T02:51:01.618Z,9.430289
2023-05-08T02:52:01.554Z,9.430281
2023-05-08T02:53:01.570Z,9.430326
2023-05-08T02:54:01.524Z,9.430356
2023-05-08T02:55:01.570Z,9.430330
2023-05-08T02:56:01.529Z,9.430298
2023-05-08T02:57:01.498Z,9.430289
2023-05-08T02:58:01.511Z,9.430344
2023-05-08T02:59:01.504Z,9.430305
2023-05-08T03:00:01.449Z,9.430304
2023-05-08T03:01:01.497Z,9.430319
2023-05-08T03:02:01.576Z,9.430333
2023-05-08T03:03:01.556Z,9.430338
2023-05-08T03:04:01.533Z,9.430307
2023-05-08T03:05:01.383Z,9.430299
2023-05-08T03:06:01.431Z,9.430310
2023-05-08T03:07:01.486Z,9.430326
2023-05-08T03:08:01.492Z,9.430294
2023-05-08T03:09:01.405Z,9.430289
2023-05-08T03:10:01.376Z,9.430327
2023-05-08T03:11:01.337Z,9.430305
2023-05-08T03:12:01.333Z,9.430302
2023-05-08T03:13:01.381Z,9.430305
2023-05-08T03:14:01.325Z,9.430313
2023-05-08T03:15:01.325Z,9.430320
2023-05-08T03:16:01.356Z,9.430313
2023-05-08T03:17:01.292Z,9.430336
2023-05-08T03:18:01.353Z,9.430329
2023-05-08T03:19:01.256Z,9.430326
2023-05-08T03:20:01.249Z,9.430330
2023-05-08T03:21:01.214Z,9.430321
2023-05-08T03:22:01.408Z,9.430343
2023-05-08T03:23:01.381Z,9.430329
2023-05-08T03:24:01.243Z,9.430307
2023-05-08T03:25:01.251Z,9.430327
2023-05-08T03:26:01.159Z,9.430318
2023-05-08T03:27:01.189Z,9.430325
2023-05-08T03:28:01.260Z,9.430340
2023-05-08T03:29:01.237Z,9.430334
2023-05-08T03:30:01.116Z,9.430306
2023-05-08T03:31:01.175Z,9.430256
2023-05-08T03:32:01.117Z,9.430326
2023-05-08T03:33:01.117Z,9.430291
2023-05-08T03:34:01.098Z,9.430327
2023-05-08T03:35:01.159Z,9.430346
2023-05-08T03:36:01.299Z,9.430324
2023-05-08T03:37:01.106Z,9.430304
2023-05-08T03:38:01.039Z,9.430316
2023-05-08T03:39:01.047Z,9.430313
2023-05-08T03:40:01.042Z,9.430317
2023-05-08T03:41:01.086Z,9.430354
2023-05-08T03:42:01.047Z,9.430339
2023-05-08T03:43:01.001Z,9.430313
2023-05-08T03:44:00.981Z,9.430330
2023-05-08T03:45:00.970Z,9.430332
2023-05-08T03:46:02.058Z,9.430332
2023-05-08T03:47:02.178Z,9.430338
2023-05-08T03:48:00.996Z,9.430323
2023-05-08T03:49:00.908Z,9.430317
2023-05-08T03:50:00.892Z,9.430306
2023-05-08T03:51:00.893Z,9.430298
2023-05-08T03:52:01.092Z,9.430302
2023-05-08T03:53:00.885Z,9.430272
2023-05-08T03:54:00.927Z,9.430337
2023-05-08T03:55:00.861Z,9.430300
2023-05-08T03:56:00.853Z,9.430295
2023-05-08T03:57:00.930Z,9.430341
2023-05-08T03:58:00.896Z,9.430311
2023-05-08T03:59:00.807Z,9.430312
2023-05-08T04:00:00.848Z,9.430316
2023-05-08T04:01:01.024Z,9.430318
2023-05-08T04:02:00.841Z,9.430314
2023-05-08T04:03:00.806Z,9.430337
2023-05-08T04:04:00.882Z,9.430335
2023-05-08T04:05:00.751Z,9.430288
2023-05-08T04:06:00.800Z,9.430305
2023-05-08T04:07:00.810Z,9.430306
2023-05-08T04:08:00.780Z,9.430334
2023-05-08T04:09:00.807Z,9.430322
2023-05-08T04:10:01.196Z,9.430327
2023-05-08T04:11:02.804Z,9.430319
2023-05-08T04:12:02.634Z,9.430328
2023-05-08T04:13:00.802Z,9.430324
2023-05-08T04:14:00.730Z,9.430305
2023-05-08T04:15:00.675Z,9.430302
2023-05-08T04:16:00.682Z,9.430305
2023-05-08T04:17:00.713Z,9.430320
2023-05-08T04:18:00.722Z,9.430310
2023-05-08T04:19:00.657Z,9.430325
2023-05-08T04:20:00.670Z,9.430330
2023-05-08T04:21:00.605Z,9.430303
2023-05-08T04:22:00.596Z,9.430301
2023-05-08T04:23:00.648Z,9.430319
2023-05-08T04:24:00.591Z,9.430334
2023-05-08T04:25:00.598Z,9.430342
2023-05-08T04:26:00.571Z,9.430319
2023-05-08T04:27:00.682Z,9.430319
2023-05-08T04:28:00.509Z,9.430297
2023-05-08T04:29:00.610Z,9.430309
2023-05-08T04:30:00.560Z,9.430365
2023-05-08T04:31:00.544Z,9.430330
2023-05-08T04:32:00.569Z,9.430370
2023-05-08T04:33:00.605Z,9.430282
2023-05-08T04:34:00.492Z,9.430303
2023-05-08T04:35:00.536Z,9.430320
2023-05-08T04:36:00.502Z,9.430325
2023-05-08T04:37:00.481Z,9.430310
2023-05-08T04:38:00.411Z,9.430332
2023-05-08T04:39:00.478Z,9.430367
2023-05-08T04:40:00.421Z,9.430348
2023-05-08T04:41:01.220Z,9.430351
2023-05-08T04:42:00.450Z,9.430337
2023-05-08T04:43:01.032Z,9.430355
2023-05-08T04:44:03.005Z,9.430344
2023-05-08T04:45:00.836Z,9.430346
2023-05-08T04:46:00.687Z,9.430357
2023-05-08T04:47:00.346Z,9.430342
2023-05-08T04:48:00.476Z,9.430402
2023-05-08T04:49:00.321Z,9.430388
2023-05-08T04:50:02.771Z,9.430392
2023-05-08T04:51:01.363Z,9.430356
2023-05-08T04:52:00.276Z,9.430340
2023-05-08T04:53:01.050Z,9.430331
2023-05-08T04:54:00.328Z,9.430298
2023-05-08T04:55:01.456Z,9.430305
2023-05-08T04:56:02.447Z,9.430305
2023-05-08T04:57:03.807Z,9.430311
2023-05-08T04:58:04.188Z,9.430319
2023-05-08T04:59:03.545Z,9.430298
2023-05-08T05:00:02.568Z,9.430303
2023-05-08T05:01:02.638Z,9.430304
2023-05-08T05:02:03.010Z,9.430305
2023-05-08T05:03:01.220Z,9.430321
2023-05-08T05:04:02.237Z,9.430306
2023-05-08T05:05:00.421Z,9.430325
2023-05-08T05:06:00.205Z,9.430341
2023-05-08T05:07:00.168Z,9.430326
2023-05-08T05:08:00.132Z,9.430328
2023-05-08T05:09:00.142Z,9.430332
2023-05-08T05:10:00.592Z,9.430327
2023-05-08T05:11:02.172Z,9.430361
2023-05-08T05:12:00.780Z,9.430326
2023-05-08T05:13:00.159Z,9.430327
2023-05-08T05:14:00.045Z,9.430335
2023-05-08T05:15:00.048Z,9.430309
2023-05-08T05:16:00.166Z,9.430328
2023-05-08T05:17:00.010Z,9.430331
2023-05-08T05:18:00.009Z,9.430326
2023-05-08T05:19:00.005Z,9.430303
2023-05-08T05:20:00.014Z,9.430313
2023-05-08T05:21:00.038Z,9.430315
2023-05-08T05:22:01.668Z,9.430264
2023-05-08T05:23:00.902Z,9.430288
2023-05-08T05:24:02.903Z,9.430314
2023-05-08T05:25:02.987Z,9.430329
2023-05-08T05:25:59.950Z,9.430310
2023-05-08T05:26:59.890Z,9.430307
2023-05-08T05:27:59.909Z,9.430346
2023-05-08T05:28:59.927Z,9.430328
2023-05-08T05:30:00.347Z,9.430316
2023-05-08T05:31:01.159Z,9.430359
2023-05-08T05:32:01.506Z,9.430305
2023-05-08T05:32:59.876Z,9.430290
2023-05-08T05:34:01.999Z,9.430331
2023-05-08T05:35:01.780Z,9.430360
2023-05-08T05:35:59.834Z,9.430320
2023-05-08T05:36:59.828Z,9.430314
2023-05-08T05:37:59.793Z,9.430317
2023-05-08T05:38:59.783Z,9.430335
2023-05-08T05:39:59.704Z,9.430306
2023-05-08T05:41:01.601Z,9.430300
2023-05-08T05:42:04.280Z,9.430307
2023-05-08T05:43:01.994Z,9.430300
2023-05-08T05:43:59.892Z,9.430321
2023-05-08T05:44:59.690Z,9.430314
2023-05-08T05:45:59.685Z,9.430336
2023-05-08T05:46:59.737Z,9.430306
2023-05-08T05:48:00.134Z,9.430310
2023-05-08T05:48:59.659Z,9.430324
2023-05-08T05:49:59.675Z,9.430308
2023-05-08T05:50:59.638Z,9.430322
2023-05-08T05:51:59.617Z,9.430279
2023-05-08T05:52:59.595Z,9.430310
2023-05-08T05:54:00.108Z,9.430304
2023-05-08T05:54:59.609Z,9.430281
2023-05-08T05:56:01.949Z,9.430314
2023-05-08T05:57:02.752Z,9.430314
2023-05-08T05:58:00.910Z,9.430325
2023-05-08T05:58:59.661Z,9.430321
2023-05-08T05:59:59.592Z,9.430323
2023-05-08T06:00:59.489Z,9.430329
2023-05-08T06:01:59.637Z,9.430329
2023-05-08T06:02:59.690Z,9.430340
2023-05-08T06:03:59.557Z,9.430315
2023-05-08T06:04:59.490Z,9.430324
2023-05-08T06:05:59.932Z,9.430328
2023-05-08T06:06:59.497Z,9.430314
2023-05-08T06:07:59.570Z,9.430309
2023-05-08T06:09:00.140Z,9.430317
2023-05-08T06:10:02.254Z,9.430336
2023-05-08T06:11:00.801Z,9.430327
2023-05-08T06:11:59.456Z,9.430320
2023-05-08T06:13:00.724Z,9.430296
2023-05-08T06:14:01.033Z,9.430316
2023-05-08T06:15:02.211Z,9.430325
2023-05-08T06:16:00.915Z,9.430305
2023-05-08T06:17:00.914Z,9.430265
2023-05-08T06:18:01.122Z,9.430291
2023-05-08T06:18:59.349Z,9.430294
2023-05-08T06:20:00.971Z,9.430338
2023-05-08T06:20:59.318Z,9.430350
2023-05-08T06:21:59.353Z,9.430350
2023-05-08T06:22:59.270Z,9.430320
2023-05-08T06:23:59.269Z,9.430322
2023-05-08T06:24:59.274Z,9.430288
2023-05-08T06:25:59.392Z,9.430304
2023-05-08T06:27:02.623Z,9.430283
2023-05-08T06:28:01.347Z,9.430327
2023-05-08T06:28:59.238Z,9.430339
2023-05-08T06:29:59.244Z,9.430345
2023-05-08T06:30:59.532Z,9.430345
2023-05-08T06:31:59.122Z,9.430385
2023-05-08T06:33:00.078Z,9.430354
2023-05-08T06:33:59.147Z,9.430357
2023-05-08T06:34:59.143Z,9.430314
2023-05-08T06:35:59.156Z,9.430329
2023-05-08T06:37:31.553Z,9.430348
2023-05-08T06:37:59.098Z,9.430347
2023-05-08T06:39:00.130Z,9.430336
2023-05-08T06:40:10.857Z,9.430353
2023-05-08T06:41:01.086Z,9.430372
2023-05-08T06:41:59.057Z,9.430352
2023-05-08T06:43:00.119Z,9.430323
2023-05-08T06:43:59.055Z,9.430305
2023-05-08T06:44:59.117Z,9.430335
2023-05-08T06:45:59.030Z,9.430336
2023-05-08T06:46:59.065Z,9.430337
2023-05-08T06:47:59.072Z,9.430329
2023-05-08T06:48:59.045Z,9.430289
2023-05-08T06:49:59.002Z,9.430327
2023-05-08T06:50:59.056Z,9.430331
2023-05-08T06:52:00.307Z,9.430346
2023-05-08T06:52:58.957Z,9.430367
2023-05-08T06:53:58.958Z,9.430359
2023-05-08T06:54:59.497Z,9.430370
2023-05-08T06:56:00.114Z,9.430363
2023-05-08T06:57:01.062Z,9.430339
2023-05-08T06:57:58.955Z,9.430322
2023-05-08T06:59:07.862Z,9.430341
2023-05-08T07:00:01.033Z,9.430360
2023-05-08T07:01:02.104Z,9.430343
2023-05-08T07:02:03.425Z,9.430338
2023-05-08T07:03:01.023Z,9.430300
2023-05-08T07:03:59.558Z,9.430344
2023-05-08T07:04:58.844Z,9.430339
2023-05-08T07:05:58.770Z,9.430372
2023-05-08T07:06:59.406Z,9.430336
2023-05-08T07:07:58.852Z,9.430351
2023-05-08T07:08:58.777Z,9.430342
2023-05-08T07:09:58.759Z,9.430342
2023-05-08T07:10:58.784Z,9.430327
2023-05-08T07:11:58.726Z,9.430378
2023-05-08T07:12:58.754Z,9.430382
2023-05-08T07:13:58.713Z,9.430356
2023-05-08T07:14:58.741Z,9.430355
2023-05-08T07:15:58.725Z,9.430361
2023-05-08T07:16:58.761Z,9.430363
2023-05-08T07:17:58.693Z,9.430314
2023-05-08T07:18:58.633Z,9.430365
2023-05-08T07:19:58.688Z,9.430318
2023-05-08T07:20:58.632Z,9.430342
2023-05-08T07:21:58.637Z,9.430367
2023-05-08T07:22:58.626Z,9.430342
2023-05-08T07:23:58.685Z,9.430328
2023-05-08T07:24:58.606Z,9.430320
2023-05-08T07:25:58.564Z,9.430323
2023-05-08T07:26:58.564Z,9.430338
2023-05-08T07:28:00.488Z,9.430334
2023-05-08T07:28:59.564Z,9.430337
2023-05-08T07:29:58.537Z,9.430360
2023-05-08T07:30:59.508Z,9.430360
2023-05-08T07:31:58.675Z,9.430363
2023-05-08T07:32:58.612Z,9.430344
2023-05-08T07:33:58.505Z,9.430334
2023-05-08T07:34:58.459Z,9.430340
2023-05-08T07:35:58.541Z,9.430342
2023-05-08T07:36:58.468Z,9.430374
2023-05-08T07:37:58.564Z,9.430365
2023-05-08T07:38:58.407Z,9.430382
2023-05-08T07:39:58.492Z,9.430343
2023-05-08T07:40:58.419Z,9.430326
2023-05-08T07:41:58.464Z,9.430357
2023-05-08T07:42:58.386Z,9.430338
2023-05-08T07:43:58.398Z,9.430339
2023-05-08T07:44:58.366Z,9.430367
2023-05-08T07:45:58.358Z,9.430329
2023-05-08T07:46:58.369Z,9.430315
2023-05-08T07:47:58.425Z,9.430383
2023-05-08T07:48:59.006Z,9.430366
2023-05-08T07:49:58.374Z,9.430372
2023-05-08T07:50:58.327Z,9.430346
2023-05-08T07:51:58.361Z,9.430386
2023-05-08T07:52:58.340Z,9.430370
2023-05-08T07:53:58.309Z,9.430350
2023-05-08T07:54:58.216Z,9.430343
2023-05-08T07:55:58.956Z,9.430325
2023-05-08T07:56:58.247Z,9.430336
2023-05-08T07:57:58.269Z,9.430359
2023-05-08T07:58:58.248Z,9.430359
2023-05-08T07:59:58.194Z,9.430350
2023-05-08T08:00:58.197Z,9.430355
2023-05-08T08:01:59.035Z,9.430342
2023-05-08T08:02:58.260Z,9.430350
2023-05-08T08:03:58.291Z,9.430358
2023-05-08T08:04:58.178Z,9.430322
2023-05-08T08:05:58.148Z,9.430275
2023-05-08T08:06:58.113Z,9.430368
2023-05-08T08:07:58.148Z,9.430338
2023-05-08T08:08:58.126Z,9.430338
2023-05-08T08:09:58.086Z,9.430334
2023-05-08T08:10:58.089Z,9.430344
2023-05-08T08:11:58.069Z,9.430325
2023-05-08T08:12:58.101Z,9.430334
2023-05-08T08:13:58.042Z,9.430367
2023-05-08T08:14:58.027Z,9.430387
2023-05-08T08:15:58.015Z,9.430375
2023-05-08T08:16:58.008Z,9.430372
2023-05-08T08:17:59.049Z,9.430400
2023-05-08T08:18:58.024Z,9.430387
2023-05-08T08:19:58.097Z,9.430321
2023-05-08T08:20:57.982Z,9.430356
2023-05-08T08:21:57.951Z,9.430394
2023-05-08T08:22:57.963Z,9.430377
2023-05-08T08:23:57.916Z,9.430365
2023-05-08T08:24:57.946Z,9.430356
2023-05-08T08:25:57.896Z,9.430335
2023-05-08T08:26:57.942Z,9.430330
2023-05-08T08:27:58.022Z,9.430341
2023-05-08T08:28:57.897Z,9.430352
2023-05-08T08:30:12.967Z,9.430356
2023-05-08T08:30:59.951Z,9.430313
2023-05-08T08:31:57.850Z,9.430342
2023-05-08T08:32:57.894Z,9.430358
2023-05-08T08:33:57.843Z,9.430364
2023-05-08T08:34:58.393Z,9.430367
2023-05-08T08:35:57.884Z,9.430363
2023-05-08T08:36:57.833Z,9.430346
2023-05-08T08:37:57.779Z,9.430341
2023-05-08T08:38:57.874Z,9.430327
2023-05-08T08:39:57.832Z,9.430333
2023-05-08T08:40:57.811Z,9.430346
2023-05-08T08:41:57.793Z,9.430359
2023-05-08T08:42:57.723Z,9.430365
2023-05-08T08:43:57.749Z,9.430361
2023-05-08T08:44:57.803Z,9.430362
2023-05-08T08:45:57.712Z,9.430386
2023-05-08T08:46:57.713Z,9.430377
2023-05-08T08:47:57.748Z,9.430334
2023-05-08T08:48:57.688Z,9.430326
2023-05-08T08:49:57.706Z,9.430343
2023-05-08T08:50:57.660Z,9.430350
2023-05-08T08:51:57.708Z,9.430326
2023-05-08T08:52:57.619Z,9.430339
2023-05-08T08:53:57.624Z,9.430309
2023-05-08T08:54:57.630Z,9.430335
2023-05-08T08:55:57.605Z,9.430323
2023-05-08T08:56:58.594Z,9.430329
2023-05-08T08:57:57.656Z,9.430325
2023-05-08T08:58:57.650Z,9.430344
2023-05-08T08:59:57.650Z,9.430326
2023-05-08T09:01:30.048Z,9.430326
2023-05-08T09:01:57.714Z,9.430326
2023-05-08T09:02:57.666Z,9.430333
2023-05-08T09:03:57.624Z,9.430331
2023-05-08T09:04:57.746Z,9.430277
2023-05-08T09:05:57.527Z,9.430286
2023-05-08T09:06:57.485Z,9.430290
2023-05-08T09:07:57.580Z,9.430326
2023-05-08T09:08:57.466Z,9.430319
2023-05-08T09:09:57.488Z,9.430285
2023-05-08T09:10:57.486Z,9.430269
2023-05-08T09:11:57.450Z,9.430297
2023-05-08T09:12:57.495Z,9.430301
2023-05-08T09:13:57.344Z,9.430319
2023-05-08T09:14:57.375Z,9.430330
2023-05-08T09:15:57.436Z,9.430315
2023-05-08T09:16:57.940Z,9.430284
2023-05-08T09:17:57.422Z,9.430328
2023-05-08T09:18:57.362Z,9.430319
2023-05-08T09:19:57.348Z,9.430335
2023-05-08T09:20:57.339Z,9.430362
2023-05-08T09:21:57.939Z,9.430346
2023-05-08T09:22:57.294Z,9.430336
2023-05-08T09:23:57.384Z,9.430344
2023-05-08T09:24:57.297Z,9.430302
2023-05-08T09:25:57.261Z,9.430309
2023-05-08T09:26:57.288Z,9.430331
2023-05-08T09:27:57.263Z,9.430310
2023-05-08T09:28:57.231Z,9.430299
2023-05-08T09:29:57.283Z,9.430316
2023-05-08T09:30:58.104Z,9.430317
2023-05-08T09:31:57.322Z,9.430306
2023-05-08T09:32:57.220Z,9.430291
2023-05-08T09:33:57.186Z,9.430338
2023-05-08T09:34:57.172Z,9.430351
2023-05-08T09:35:57.178Z,9.430330
2023-05-08T09:36:57.145Z,9.430345
2023-05-08T09:37:57.395Z,9.430342
2023-05-08T09:38:58.139Z,9.430259
2023-05-08T09:39:57.248Z,9.430305
2023-05-08T09:40:57.147Z,9.430305
2023-05-08T09:41:57.146Z,9.430278
2023-05-08T09:42:57.131Z,9.430267
2023-05-08T09:43:57.095Z,9.430329
2023-05-08T09:44:57.097Z,9.430328
2023-05-08T09:45:57.167Z,9.430319
2023-05-08T09:46:57.039Z,9.430309
2023-05-08T09:47:57.075Z,9.430271
2023-05-08T09:48:57.045Z,9.430288
2023-05-08T09:49:57.040Z,9.430279
2023-05-08T09:50:57.038Z,9.430285
2023-05-08T09:51:57.102Z,9.430290
2023-05-08T09:52:57.941Z,9.430296
2023-05-08T09:53:56.986Z,9.430296
2023-05-08T09:54:56.959Z,9.430311
2023-05-08T09:55:57.037Z,9.430350
2023-05-08T09:56:57.005Z,9.430367
2023-05-08T09:57:56.950Z,9.430353
2023-05-08T09:58:56.922Z,9.430374
2023-05-08T09:59:56.922Z,9.430310
2023-05-08T10:00:56.953Z,9.430312
2023-05-08T10:01:56.901Z,9.430343
2023-05-08T10:02:56.934Z,9.430330
2023-05-08T10:03:56.874Z,9.430354
2023-05-08T10:04:56.936Z,9.430327
2023-05-08T10:05:56.895Z,9.430308
2023-05-08T10:06:56.883Z,9.430346
2023-05-08T10:07:56.838Z,9.430361
2023-05-08T10:09:42.532Z,9.430342
2023-05-08T10:09:57.946Z,9.430325
2023-05-08T10:10:56.777Z,9.430337
2023-05-08T10:11:58.187Z,9.430348
2023-05-08T10:12:56.882Z,9.430284
2023-05-08T10:13:57.720Z,9.430268
2023-05-08T10:14:56.800Z,9.430308
2023-05-08T10:15:56.767Z,9.430362
2023-05-08T10:16:56.778Z,9.430351
2023-05-08T10:17:56.776Z,9.430311
2023-05-08T10:18:56.742Z,9.430301
2023-05-08T10:19:56.756Z,9.430325
2023-05-08T10:20:56.751Z,9.430314
2023-05-08T10:21:56.706Z,9.430311
2023-05-08T10:22:56.880Z,9.430352
2023-05-08T10:23:56.763Z,9.430356
2023-05-08T10:24:56.650Z,9.430353
2023-05-08T10:25:56.661Z,9.430369
2023-05-08T10:27:06.339Z,9.430368
2023-05-08T10:27:58.709Z,9.430364
2023-05-08T10:28:56.648Z,9.430362
2023-05-08T10:29:56.606Z,9.430320
2023-05-08T10:30:56.629Z,9.430334
2023-05-08T10:31:56.638Z,9.430359
2023-05-08T10:32:56.649Z,9.430306
2023-05-08T10:33:56.588Z,9.430335
2023-05-08T10:34:56.590Z,9.430316
2023-05-08T10:35:56.580Z,9.430332
2023-05-08T10:36:56.597Z,9.430346
2023-05-08T10:37:56.536Z,9.430334
2023-05-08T10:38:56.621Z,9.430340
2023-05-08T10:39:56.497Z,9.430255
2023-05-08T10:40:56.506Z,9.430303
2023-05-08T10:41:56.465Z,9.430342
2023-05-08T10:42:56.500Z,9.430347
2023-05-08T10:43:56.567Z,9.430368
2023-05-08T10:44:57.103Z,9.430310
2023-05-08T10:45:56.570Z,9.430316
2023-05-08T10:46:56.469Z,9.430334
2023-05-08T10:47:56.491Z,9.430293
2023-05-08T10:48:56.444Z,9.430334
2023-05-08T10:49:56.426Z,9.430317
2023-05-08T10:51:37.410Z,9.430338
2023-05-08T10:51:56.584Z,9.430333
2023-05-08T10:52:56.415Z,9.430349
2023-05-08T10:53:56.774Z,9.430333
2023-05-08T10:54:56.425Z,9.430324
2023-05-08T10:55:56.674Z,9.430342
2023-05-08T10:56:56.324Z,9.430294
2023-05-08T10:57:56.324Z,9.430330
2023-05-08T10:58:56.289Z,9.430349
2023-05-08T10:59:56.349Z,9.430330
2023-05-08T11:00:56.302Z,9.430321
2023-05-08T11:01:56.390Z,9.430343
2023-05-08T11:02:57.339Z,9.430363
2023-05-08T11:03:56.798Z,9.430345
2023-05-08T11:04:56.214Z,9.430344
2023-05-08T11:05:56.282Z,9.430330
2023-05-08T11:06:56.249Z,9.430352
2023-05-08T11:07:56.233Z,9.430350
2023-05-08T11:08:57.311Z,9.430321
2023-05-08T11:09:56.167Z,9.430326
2023-05-08T11:10:56.186Z,9.430347
2023-05-08T11:11:56.170Z,9.430332
2023-05-08T11:12:56.206Z,9.430340
2023-05-08T11:13:56.154Z,9.430346
2023-05-08T11:14:56.146Z,9.430353
2023-05-08T11:15:56.210Z,9.430376
2023-05-08T11:16:56.111Z,9.430367
2023-05-08T11:17:57.065Z,9.430367
2023-05-08T11:18:56.128Z,9.430337
2023-05-08T11:19:56.103Z,9.430378
2023-05-08T11:20:56.089Z,9.430355
2023-05-08T11:21:56.105Z,9.430356
2023-05-08T11:22:56.134Z,9.430351
2023-05-08T11:23:56.046Z,9.430366
2023-05-08T11:24:56.025Z,9.430382
2023-05-08T11:25:56.010Z,9.430356
2023-05-08T11:26:56.027Z,9.430369
2023-05-08T11:27:56.001Z,9.430341
2023-05-08T11:28:55.944Z,9.430369
2023-05-08T11:29:55.945Z,9.430347
2023-05-08T11:30:55.938Z,9.430356
2023-05-08T11:31:55.998Z,9.430345
2023-05-08T11:32:56.094Z,9.430361
2023-05-08T11:33:55.916Z,9.430361
2023-05-08T11:34:55.913Z,9.430342
2023-05-08T11:35:55.987Z,9.430356
2023-05-08T11:36:55.905Z,9.430389
2023-05-08T11:37:55.924Z,9.430402
2023-05-08T11:38:56.435Z,9.430387
2023-05-08T11:39:56.856Z,9.430430
2023-05-08T11:40:55.836Z,9.430360
2023-05-08T11:41:55.859Z,9.430309
2023-05-08T11:42:55.858Z,9.430354
2023-05-08T11:43:55.864Z,9.430337